Time;durP1;ratioP1;P1;durP2;ratioP2;P2;SDS_P1;SDS_P2;PMS_P1;PMS_P2;Temp;Humidity;BMP_temperature;BMP_pressure;BME280_temperature;BME280_humidity;BME280_pressure;Samples;Min_cycle;Max_cycle;Signal;HPM_P1;HPM_P2
2022/03/12 00:01:06;;;;;;;19.05;12.02;;;;;;;9.19;52.71;101221.00;5073915;28;20040;-32
2022/03/12 00:03:35;;;;;;;17.77;11.88;;;;;;;9.20;52.90;101219.06;5074659;28;20448;-29
2022/03/12 00:06:03;;;;;;;16.35;11.38;;;;;;;9.20;53.04;101219.88;5074442;28;20143;-29
2022/03/12 00:08:41;;;;;;;16.58;11.45;;;;;;;9.19;53.09;101218.22;5073615;28;20405;-29
2022/03/12 00:11:10;;;;;;;18.45;11.60;;;;;;;9.17;53.10;101209.34;5065870;28;20588;-30
2022/03/12 00:13:39;;;;;;;15.85;10.98;;;;;;;9.14;53.38;101221.03;5074544;28;20048;-32
2022/03/12 00:16:10;;;;;;;16.60;11.68;;;;;;;9.08;53.84;101216.56;5073600;28;20070;-28
2022/03/12 00:18:38;;;;;;;17.30;11.02;;;;;;;9.06;54.04;101223.53;5074218;28;20409;-29
2022/03/12 00:21:06;;;;;;;16.52;11.45;;;;;;;9.05;54.28;101217.13;5074476;28;20037;-26
2022/03/12 00:23:34;;;;;;;17.92;12.20;;;;;;;9.04;54.08;101225.75;5073554;28;20048;-28
2022/03/12 00:26:02;;;;;;;17.30;11.40;;;;;;;8.99;54.23;101218.28;5074122;28;20131;-27
2022/03/12 00:28:30;;;;;;;16.27;10.77;;;;;;;9.01;53.99;101218.81;5074210;28;20060;-28
2022/03/12 00:30:59;;;;;;;16.55;10.40;;;;;;;9.03;54.11;101215.75;5073319;28;20044;-26
2022/03/12 00:33:27;;;;;;;16.58;11.02;;;;;;;9.03;54.07;101222.16;5063352;28;20047;-28
2022/03/12 00:35:56;;;;;;;15.23;10.77;;;;;;;9.02;53.93;101228.81;5074067;28;20060;-28
2022/03/12 00:38:24;;;;;;;15.82;10.63;;;;;;;9.04;53.94;101226.59;5073027;28;20048;-27
2022/03/12 00:40:52;;;;;;;16.85;11.02;;;;;;;9.03;53.74;101230.50;5074032;28;20102;-28
2022/03/12 00:43:21;;;;;;;16.42;11.35;;;;;;;9.00;53.69;101219.91;5070201;28;20067;-30
2022/03/12 00:45:50;;;;;;;16.45;11.35;;;;;;;9.04;53.80;101232.16;5062804;28;20064;-28
2022/03/12 00:48:19;;;;;;;14.88;11.05;;;;;;;9.08;53.79;101229.66;5073211;28;20443;-35
2022/03/12 00:51:04;;;;;;;17.33;10.98;;;;;;;9.07;53.64;101225.22;5062795;28;20044;-29
2022/03/12 00:53:32;;;;;;;17.05;11.60;;;;;;;9.06;53.81;101229.94;5073753;28;20040;-29
2022/03/12 00:56:00;;;;;;;15.63;11.13;;;;;;;9.08;53.75;101232.44;5073687;28;20048;-29
2022/03/12 00:58:28;;;;;;;15.82;10.73;;;;;;;9.08;53.75;101227.72;5072544;28;20074;-27
2022/03/12 01:00:56;;;;;;;16.13;11.13;;;;;;;9.07;53.86;101228.81;5073839;28;20044;-28
2022/03/12 01:03:26;;;;;;;17.20;10.98;;;;;;;9.09;53.69;101221.03;5073722;28;20040;-29
2022/03/12 01:05:58;;;;;;;16.38;10.98;;;;;;;9.10;53.83;101219.91;5071619;28;20048;-30
2022/03/12 01:08:27;;;;;;;16.27;10.68;;;;;;;9.11;53.60;101232.72;5073573;28;20045;-30
2022/03/12 01:10:58;;;;;;;14.60;10.80;;;;;;;9.13;53.70;101232.44;5073234;28;20052;-27
2022/03/12 01:13:27;;;;;;;19.00;11.57;;;;;;;9.11;53.32;101224.38;5072932;28;20048;-28
2022/03/12 01:15:55;;;;;;;14.80;11.07;;;;;;;9.13;53.53;101230.50;5073596;28;20057;-30
2022/03/12 01:18:26;;;;;;;16.02;11.05;;;;;;;9.16;53.41;101226.31;5072910;28;20051;-27
2022/03/12 01:20:54;;;;;;;17.27;11.05;;;;;;;9.15;53.53;101224.66;5073267;28;20053;-27
2022/03/12 01:23:24;;;;;;;17.67;11.40;;;;;;;9.15;53.54;101230.22;5073494;28;20048;-27
2022/03/12 01:25:53;;;;;;;15.85;10.68;;;;;;;9.14;53.13;101232.16;5072273;28;20405;-31
2022/03/12 01:28:21;;;;;;;17.55;10.90;;;;;;;9.17;53.26;101228.81;5072917;28;20056;-36
2022/03/12 01:30:50;;;;;;;15.98;10.90;;;;;;;9.17;53.44;101230.78;5072884;28;20439;-33
2022/03/12 01:33:18;;;;;;;14.98;10.70;;;;;;;9.18;53.71;101233.28;5072189;28;20055;-31
2022/03/12 01:35:47;;;;;;;16.88;10.60;;;;;;;9.15;53.73;101241.34;5072723;28;20477;-27
2022/03/12 01:38:15;;;;;;;15.25;10.35;;;;;;;9.15;54.14;101238.56;5072760;28;20040;-28
2022/03/12 01:40:43;;;;;;;17.33;11.43;;;;;;;9.17;53.87;101239.97;5072225;28;20075;-34
2022/03/12 01:43:11;;;;;;;16.40;11.00;;;;;;;9.16;54.00;101237.47;5072806;28;20414;-28
2022/03/12 01:45:42;;;;;;;15.75;10.85;;;;;;;9.14;54.28;101250.81;5072560;28;20076;-27
2022/03/12 01:48:10;;;;;;;17.35;11.10;;;;;;;9.12;54.39;101237.19;5071607;28;20097;-28
2022/03/12 01:50:38;;;;;;;15.73;10.80;;;;;;;9.11;55.41;101246.63;5072439;28;20474;-28
2022/03/12 01:53:10;;;;;;;17.50;12.15;;;;;;;9.07;56.40;101251.09;5061541;28;20411;-29
2022/03/12 01:55:39;;;;;;;16.37;11.07;;;;;;;9.05;56.40;101244.97;5070945;28;20049;-31
2022/03/12 01:58:09;;;;;;;16.98;11.07;;;;;;;9.02;57.03;101251.09;5072576;28;20332;-29
2022/03/12 02:00:43;;;;;;;18.05;11.73;;;;;;;8.99;57.58;101240.53;5071294;28;20052;-27
2022/03/12 02:03:13;;;;;;;20.33;12.35;;;;;;;8.94;58.72;101255.28;5072774;28;20044;-27
2022/03/12 02:05:42;;;;;;;18.73;11.73;;;;;;;8.92;59.61;101248.31;5071961;28;20390;-27
2022/03/12 02:08:13;;;;;;;16.77;11.98;;;;;;;8.88;60.93;101247.22;5068167;28;20540;-28
2022/03/12 02:10:41;;;;;;;17.77;11.50;;;;;;;8.86;62.07;101258.63;5072054;28;20519;-29
2022/03/12 02:13:09;;;;;;;19.23;12.00;;;;;;;8.83;64.13;101247.19;5070871;28;20060;-28
2022/03/12 02:15:37;;;;;;;17.40;11.45;;;;;;;8.77;68.10;101259.47;5071563;28;20052;-30
2022/03/12 02:18:05;;;;;;;18.13;12.20;;;;;;;8.70;69.21;101259.72;5072140;28;20052;-30
2022/03/12 02:20:38;;;;;;;18.05;11.68;;;;;;;8.59;73.39;101256.09;5072175;28;20055;-28
2022/03/12 02:23:07;;;;;;;18.27;12.32;;;;;;;8.59;75.16;101256.09;5071070;28;20052;-30
2022/03/12 02:25:36;;;;;;;17.27;12.30;;;;;;;8.52;77.09;101252.75;5071908;28;20409;-28
2022/03/12 02:28:17;;;;;;;20.08;13.07;;;;;;;8.45;79.19;101256.91;5071814;28;20044;-28
2022/03/12 02:30:48;;;;;;;19.48;13.60;;;;;;;8.34;81.26;101253.28;5063456;28;20060;-30
2022/03/12 02:33:23;;;;;;;20.00;13.13;;;;;;;8.28;82.69;101251.56;5072020;28;20395;-29
2022/03/12 02:35:51;;;;;;;18.90;13.20;;;;;;;8.19;85.46;101251.25;5062533;28;20287;-28
2022/03/12 02:38:21;;;;;;;19.40;13.30;;;;;;;8.14;86.58;101244.84;5071864;28;20062;-27
2022/03/12 02:40:51;;;;;;;18.45;12.77;;;;;;;8.08;88.26;101248.72;5071631;28;20139;-30
2022/03/12 02:43:23;;;;;;;20.25;13.98;;;;;;;8.04;88.11;101248.44;5069413;28;20028;-28
2022/03/12 02:45:51;;;;;;;17.63;13.10;;;;;;;7.98;91.52;101251.47;5069661;28;20042;-32
2022/03/12 02:48:19;;;;;;;19.48;13.23;;;;;;;7.95;91.01;101244.53;5069573;28;20047;-30
2022/03/12 02:50:48;;;;;;;18.92;13.45;;;;;;;7.94;91.78;101240.91;5068752;28;20044;-29
2022/03/12 02:53:17;;;;;;;17.92;12.52;;;;;;;7.93;91.26;101244.78;5069692;28;20413;-28
2022/03/12 02:55:45;;;;;;;20.90;12.80;;;;;;;7.94;91.55;101246.47;5069868;28;20127;-28
2022/03/12 02:58:17;;;;;;;17.40;12.57;;;;;;;7.94;91.45;101262.31;5069934;28;20102;-29
2022/03/12 03:00:44;;;;;;;19.10;13.48;;;;;;;7.92;92.04;101242.28;5071543;28;20489;-28
2022/03/12 03:03:12;;;;;;;20.83;13.48;;;;;;;7.89;93.65;101263.09;5071709;28;20075;-29
2022/03/12 03:05:44;;;;;;;19.58;13.35;;;;;;;7.89;93.32;101252.00;5070014;28;20044;-27
2022/03/12 03:08:18;;;;;;;17.30;12.95;;;;;;;7.90;92.99;101250.06;5067400;28;20041;-31
2022/03/12 03:10:48;;;;;;;19.70;13.07;;;;;;;7.90;92.31;101250.06;5060775;28;20048;-28
2022/03/12 03:13:35;;;;;;;20.20;13.52;;;;;;;7.92;92.21;101245.06;5071421;28;20047;-29
2022/03/12 03:16:06;;;;;;;19.23;12.52;;;;;;;7.89;92.35;101254.78;5062174;28;20489;-35
2022/03/12 03:18:39;;;;;;;19.10;13.63;;;;;;;7.85;94.39;101259.19;5067919;28;20071;-29
2022/03/12 03:21:08;;;;;;;;;;;;;;;7.80;95.26;101256.38;5071990;28;20091;-30
2022/03/12 03:23:36;;;;;;;19.75;13.00;;;;;;;7.79;95.36;101257.53;5071052;28;19948;-29
2022/03/12 03:26:06;;;;;;;19.92;12.93;;;;;;;7.88;93.34;101266.16;5070558;28;20424;-28
2022/03/12 03:28:35;;;;;;;19.25;13.73;;;;;;;7.86;94.48;101269.19;5070913;28;20516;-27
2022/03/12 03:31:05;;;;;;;18.70;13.18;;;;;;;7.87;94.35;101270.88;5071251;28;20036;-28
2022/03/12 03:33:34;;;;;;;18.48;13.52;;;;;;;7.89;94.05;101273.38;5070406;28;20423;-27
2022/03/12 03:36:01;;;;;;;19.05;12.88;;;;;;;7.89;94.57;101270.59;5071402;28;20048;-30
2022/03/12 03:38:29;;;;;;;19.05;13.13;;;;;;;7.89;94.20;101276.16;5070848;28;20049;-27
2022/03/12 03:40:57;;;;;;;18.80;12.95;;;;;;;7.93;94.06;101278.13;5070848;28;20059;-30
2022/03/12 03:43:26;;;;;;;20.92;14.25;;;;;;;7.93;94.06;101280.91;5071165;28;20062;-29
2022/03/12 03:45:58;;;;;;;21.55;13.50;;;;;;;7.95;93.37;101275.94;5070985;28;20053;-27
2022/03/12 03:48:31;;;;;;;19.70;13.05;;;;;;;7.93;93.28;101278.13;5071079;28;20512;-28
2022/03/12 03:50:58;;;;;;;22.85;14.45;;;;;;;7.91;92.98;101277.56;5070886;28;20048;-29
2022/03/12 03:53:27;;;;;;;19.55;13.15;;;;;;;7.93;92.43;101277.31;5070390;28;20052;-28
2022/03/12 03:55:58;;;;;;;19.90;13.55;;;;;;;7.92;92.34;101276.47;5071062;28;20126;-28
2022/03/12 03:58:26;;;;;;;20.08;13.63;;;;;;;7.90;91.86;101284.22;5071151;28;20044;-28
2022/03/12 04:00:58;;;;;;;20.27;13.05;;;;;;;7.87;91.92;101293.09;5070130;28;20052;-27
2022/03/12 04:03:31;;;;;;;;;;;;;;;7.79;93.40;101290.88;5071439;28;20044;-26
2022/03/12 04:06:00;;;;;;;16.10;11.70;;;;;;;7.70;93.64;101289.69;5071200;28;19924;-28
2022/03/12 04:08:28;;;;;;;19.98;13.20;;;;;;;7.69;94.58;101298.28;5068718;28;20055;-29
2022/03/12 04:10:56;;;;;;;19.38;13.23;;;;;;;7.67;93.96;101295.78;5070868;28;20048;-27
2022/03/12 04:13:24;;;;;;;21.95;13.43;;;;;;;7.65;93.52;101297.97;5070908;28;20047;-27
2022/03/12 04:15:53;;;;;;;17.92;12.45;;;;;;;7.62;93.44;101306.84;5059067;28;20387;-28
2022/03/12 04:18:22;;;;;;;21.05;13.30;;;;;;;7.58;93.77;101302.97;5074112;28;20048;-28
2022/03/12 04:20:51;;;;;;;18.92;13.07;;;;;;;7.52;93.90;101301.25;5074463;28;20102;-29
2022/03/12 04:23:21;;;;;;;21.33;13.25;;;;;;;7.48;94.46;101308.44;5073702;28;20068;-29
2022/03/12 04:25:49;;;;;;;20.27;13.55;;;;;;;7.46;94.37;101303.16;5074289;28;20716;-27
2022/03/12 04:28:17;;;;;;;19.17;12.75;;;;;;;7.46;93.80;101300.38;5062733;28;20053;-28
2022/03/12 04:30:45;;;;;;;19.20;13.13;;;;;;;7.45;94.11;101306.19;5072715;28;20382;-28
2022/03/12 04:33:15;;;;;;;19.00;12.68;;;;;;;7.43;94.09;101312.00;5074474;28;20051;-27
2022/03/12 04:35:45;;;;;;;19.15;12.60;;;;;;;7.43;93.78;101311.16;5072872;28;20059;-28
2022/03/12 04:38:13;;;;;;;19.50;13.73;;;;;;;7.42;93.77;101304.78;5072030;28;20040;-29
2022/03/12 04:40:43;;;;;;;19.20;13.70;;;;;;;7.42;93.98;101309.50;5072121;28;20128;-30
2022/03/12 04:43:13;;;;;;;20.50;13.80;;;;;;;7.41;94.17;101311.44;5071077;28;20049;-28
2022/03/12 04:45:43;;;;;;;19.88;13.75;;;;;;;7.42;94.05;101306.72;5073802;28;20056;-28
2022/03/12 04:48:14;;;;;;;21.63;14.75;;;;;;;7.41;94.66;101310.59;5073551;28;20049;-28
2022/03/12 04:50:42;;;;;;;21.13;13.95;;;;;;;7.39;94.56;101310.06;5072707;28;20044;-28
2022/03/12 04:53:11;;;;;;;19.98;13.32;;;;;;;7.45;93.83;101320.06;5073548;28;20068;-29
2022/03/12 04:55:41;;;;;;;18.05;12.77;;;;;;;7.45;94.16;101320.06;5073584;28;20055;-30
2022/03/12 04:58:09;;;;;;;19.02;13.38;;;;;;;7.47;93.96;101317.88;5073013;28;20041;-29
2022/03/12 05:00:39;;;;;;;19.35;13.38;;;;;;;7.47;94.42;101329.81;5073697;28;20056;-33
2022/03/12 05:03:09;;;;;;;19.15;12.70;;;;;;;7.50;94.42;101331.22;5073627;28;20048;-34
2022/03/12 05:05:39;;;;;;;19.25;13.63;;;;;;;7.49;94.38;101335.94;5072784;28;20107;-34
2022/03/12 05:08:10;;;;;;;19.13;13.15;;;;;;;7.46;94.85;101330.91;5073366;28;20032;-29
2022/03/12 05:10:39;;;;;;;21.27;14.68;;;;;;;7.45;95.37;101334.78;5072786;28;20052;-32
2022/03/12 05:13:07;;;;;;;21.48;12.93;;;;;;;7.44;95.51;101346.16;5073268;28;20513;-32
2022/03/12 05:15:38;;;;;;;22.40;14.32;;;;;;;7.42;95.37;101345.59;5073348;28;20060;-29
2022/03/12 05:18:07;;;;;;;19.38;12.90;;;;;;;7.40;96.06;101345.84;5072564;28;20050;-30
2022/03/12 05:20:37;;;;;;;20.15;13.00;;;;;;;7.37;97.27;101351.13;5073099;28;20036;-30
2022/03/12 05:23:07;;;;;;;18.88;13.30;;;;;;;7.36;97.42;101343.91;5062346;28;20032;-29
2022/03/12 05:25:35;;;;;;;20.38;13.23;;;;;;;7.35;97.19;101351.41;5072530;28;20124;-28
2022/03/12 05:28:05;;;;;;;21.65;13.60;;;;;;;7.38;97.49;101344.47;5072200;28;20413;-28
2022/03/12 05:30:33;;;;;;;18.42;12.75;;;;;;;7.36;98.22;101349.44;5073033;28;20135;-28
2022/03/12 05:33:00;;;;;;;17.42;12.05;;;;;;;7.38;98.25;101356.41;5072063;28;20132;-28
2022/03/12 05:35:28;;;;;;;22.42;12.95;;;;;;;7.40;98.90;101350.56;5072849;28;20057;-28
2022/03/12 05:37:56;;;;;;;21.70;13.75;;;;;;;7.42;98.42;101359.47;5072587;28;20044;-29
2022/03/12 05:40:25;;;;;;;20.20;13.70;;;;;;;7.40;98.47;101365.28;5070555;28;20040;-28
2022/03/12 05:42:58;;;;;;;17.80;12.05;;;;;;;7.40;98.99;101365.28;5072709;28;20477;-28
2022/03/12 05:45:27;;;;;;;18.05;13.05;;;;;;;7.39;98.63;101365.59;5069601;28;20048;-28
2022/03/12 05:47:56;;;;;;;18.73;12.32;;;;;;;7.33;99.45;101367.47;5072998;28;20080;-30
2022/03/12 05:50:24;;;;;;;17.83;12.60;;;;;;;7.30;99.52;101367.16;5071307;28;20036;-28
2022/03/12 05:52:52;;;;;;;20.42;13.13;;;;;;;7.25;99.73;101367.94;5071598;28;20052;-30
2022/03/12 05:55:22;;;;;;;20.77;13.65;;;;;;;7.20;100.00;101371.50;5072158;28;20160;-27
2022/03/12 05:57:51;;;;;;;19.27;11.52;;;;;;;7.17;100.00;101374.84;5072382;28;20059;-28
2022/03/12 06:00:19;;;;;;;18.95;13.43;;;;;;;7.14;100.00;101374.53;5071151;28;20449;-28
2022/03/12 06:02:51;;;;;;;17.30;12.15;;;;;;;7.13;100.00;101383.94;5072273;28;20411;-28
2022/03/12 06:05:24;;;;;;;17.75;12.40;;;;;;;7.08;100.00;101390.28;5070481;28;20072;-28
2022/03/12 06:07:53;;;;;;;17.40;12.27;;;;;;;7.08;100.00;101392.22;5071290;28;20048;-28
2022/03/12 06:10:23;;;;;;;17.45;12.27;;;;;;;7.05;100.00;101382.47;5072034;28;20053;-27
2022/03/12 06:12:53;;;;;;;18.23;12.73;;;;;;;7.02;100.00;101394.09;5071837;28;20049;-27
2022/03/12 06:15:26;;;;;;;20.85;12.65;;;;;;;6.97;100.00;101391.31;5071357;28;20059;-27
2022/03/12 06:17:55;;;;;;;18.58;12.48;;;;;;;6.96;100.00;101392.41;5071949;28;20045;-28
2022/03/12 06:20:24;;;;;;;17.65;12.15;;;;;;;6.94;100.00;101396.53;5071570;28;20063;-29
2022/03/12 06:22:54;;;;;;;19.40;12.48;;;;;;;6.91;100.00;101393.19;5070597;28;20516;-28
2022/03/12 06:25:24;;;;;;;19.80;13.63;;;;;;;6.89;100.00;101398.16;5071462;28;20421;-28
2022/03/12 06:27:54;;;;;;;18.88;12.73;;;;;;;6.88;100.00;101399.25;5071148;28;20040;-27
2022/03/12 06:30:24;;;;;;;16.65;12.15;;;;;;;6.87;100.00;101403.13;5061220;28;20097;-29
2022/03/12 06:32:55;;;;;;;19.52;13.25;;;;;;;6.88;100.00;101413.13;5071846;28;20135;-26
2022/03/12 06:35:24;;;;;;;17.98;12.35;;;;;;;6.92;100.00;101410.66;5070400;28;20083;-27
2022/03/12 06:37:52;;;;;;;18.23;11.70;;;;;;;6.95;100.00;101401.81;5067541;28;20056;-29
2022/03/12 06:40:21;;;;;;;16.85;12.40;;;;;;;6.98;100.00;101417.09;5070270;28;20056;-30
2022/03/12 06:42:53;;;;;;;18.65;12.50;;;;;;;7.01;100.00;101422.09;5069828;28;20048;-29
2022/03/12 06:45:21;;;;;;;20.63;12.52;;;;;;;7.02;100.00;101427.41;5070474;28;20044;-28
2022/03/12 06:47:49;;;;;;;17.48;11.93;;;;;;;7.07;100.00;101423.84;5070396;28;20162;-30
2022/03/12 06:50:21;;;;;;;17.48;12.18;;;;;;;7.11;100.00;101428.63;5069019;28;20047;-32
2022/03/12 06:52:50;;;;;;;17.27;11.80;;;;;;;7.12;100.00;101437.78;5070424;28;20159;-30
2022/03/12 06:55:19;;;;;;;19.30;13.38;;;;;;;7.15;100.00;101440.88;5067992;28;20052;-27
2022/03/12 06:57:47;;;;;;;17.98;12.70;;;;;;;7.18;100.00;101437.56;5069616;28;20563;-28
2022/03/12 07:00:18;;;;;;;17.35;11.68;;;;;;;7.20;100.00;101440.91;5070145;28;20076;-29
2022/03/12 07:02:45;;;;;;;18.00;12.10;;;;;;;7.24;100.00;101441.22;5070692;28;20398;-28
2022/03/12 07:05:13;;;;;;;17.10;11.65;;;;;;;7.33;100.00;101447.16;5068240;28;20052;-29
2022/03/12 07:07:43;;;;;;;18.05;12.05;;;;;;;7.39;100.00;101452.50;5070209;28;20053;-30
2022/03/12 07:10:11;;;;;;;16.35;11.95;;;;;;;7.49;100.00;101454.50;5068939;28;20071;-28
2022/03/12 07:12:42;;;;;;;17.02;11.52;;;;;;;7.56;100.00;101463.47;5069751;28;20052;-30
2022/03/12 07:15:10;;;;;;;17.80;11.43;;;;;;;7.61;100.00;101464.31;5061148;28;20087;-29
2022/03/12 07:17:37;;;;;;;16.40;11.13;;;;;;;7.67;100.00;101459.66;5069257;28;20058;-28
2022/03/12 07:20:13;;;;;;;15.13;10.95;;;;;;;7.70;100.00;101456.34;5069783;28;20048;-28
2022/03/12 07:22:40;;;;;;;17.27;10.98;;;;;;;7.76;100.00;101462.78;5068553;28;20058;-27
2022/03/12 07:25:11;;;;;;;16.27;10.77;;;;;;;7.79;100.00;101460.34;5068914;28;20045;-29
2022/03/12 07:27:40;;;;;;;15.38;10.95;;;;;;;7.83;100.00;101472.56;5070328;28;20056;-28
2022/03/12 07:30:10;;;;;;;17.63;10.90;;;;;;;7.86;100.00;101468.41;5070048;28;20068;-27
2022/03/12 07:32:39;;;;;;;14.23;10.20;;;;;;;7.88;100.00;101469.84;5069701;28;20044;-27
2022/03/12 07:35:07;;;;;;;16.15;11.18;;;;;;;7.91;100.00;101474.84;5069410;28;20044;-28
2022/03/12 07:37:36;;;;;;;15.10;10.38;;;;;;;7.95;100.00;101472.38;5058830;28;20409;-27
2022/03/12 07:40:05;;;;;;;15.75;10.48;;;;;;;7.99;100.00;101478.25;5069962;28;20174;-28
2022/03/12 07:42:34;;;;;;;13.77;10.13;;;;;;;8.07;100.00;101483.31;5069667;28;20051;-27
2022/03/12 07:45:07;;;;;;;14.45;10.00;;;;;;;8.11;100.00;101484.44;5070122;28;20394;-28
2022/03/12 07:47:34;;;;;;;14.88;9.32;;;;;;;8.15;100.00;101488.38;5068919;28;20044;-27
2022/03/12 07:50:06;;;;;;;13.70;9.35;;;;;;;8.19;100.00;101487.53;5070447;28;20044;-28
2022/03/12 07:52:34;;;;;;;13.60;9.63;;;;;;;8.23;100.00;101490.63;5072400;28;20063;-28
2022/03/12 07:55:04;;;;;;;12.52;8.52;;;;;;;8.33;100.00;101489.91;5074367;28;20048;-28
2022/03/12 07:57:33;;;;;;;13.82;8.70;;;;;;;8.41;100.00;101486.59;5074259;28;20052;-28
2022/03/12 08:00:03;;;;;;;12.45;9.07;;;;;;;8.51;100.00;101490.28;5073879;28;20033;-35
2022/03/12 08:02:40;;;;;;;10.73;8.23;;;;;;;8.58;100.00;101492.84;5074535;28;20056;-30
2022/03/12 08:05:08;;;;;;;11.48;8.13;;;;;;;8.63;100.00;101502.03;5074507;28;20119;-27
2022/03/12 08:07:38;;;;;;;11.93;8.40;;;;;;;8.74;100.00;101510.44;5073617;28;20044;-30
2022/03/12 08:10:07;;;;;;;13.10;8.63;;;;;;;8.78;100.00;101506.00;5073357;28;20498;-29
2022/03/12 08:12:36;;;;;;;13.45;9.30;;;;;;;8.80;100.00;101506.53;5074433;28;20143;-27
2022/03/12 08:15:08;;;;;;;11.60;8.73;;;;;;;8.82;100.00;101509.88;5072147;28;20049;-26
2022/03/12 08:17:37;;;;;;;15.30;8.60;;;;;;;8.84;100.00;101511.28;5074453;28;20057;-28
2022/03/12 08:20:07;;;;;;;11.18;8.52;;;;;;;8.89;100.00;101522.47;5073778;28;20048;-26
2022/03/12 08:22:38;;;;;;;10.73;8.05;;;;;;;8.96;100.00;101511.09;5073624;28;20098;-28
2022/03/12 08:25:08;;;;;;;13.68;8.27;;;;;;;9.08;100.00;101510.84;5073641;28;20048;-30
2022/03/12 08:27:39;;;;;;;10.88;7.00;;;;;;;9.18;100.00;101511.72;5065280;28;20103;-28
2022/03/12 08:30:08;;;;;;;11.77;8.07;;;;;;;9.31;100.00;101522.31;5074006;28;20473;-29
2022/03/12 08:32:39;;;;;;;11.27;8.00;;;;;;;9.42;100.00;101519.56;5074166;28;20053;-33
2022/03/12 08:35:09;;;;;;;10.48;7.35;;;;;;;9.53;100.00;101529.63;5073186;28;20477;-35
2022/03/12 08:37:37;;;;;;;10.00;7.50;;;;;;;9.62;100.00;101525.16;5074098;28;20051;-29
2022/03/12 08:40:07;;;;;;;10.70;7.82;;;;;;;9.73;100.00;101524.06;5073960;28;20056;-29
2022/03/12 08:42:35;;;;;;;11.65;8.10;;;;;;;9.80;100.00;101532.97;5073188;28;20048;-30
2022/03/12 08:45:05;;;;;;;9.85;7.82;;;;;;;9.91;100.00;101531.88;5073363;28;20044;-32
2022/03/12 08:47:33;;;;;;;9.57;7.07;;;;;;;10.02;100.00;101535.50;5074023;28;20058;-32
2022/03/12 08:50:01;;;;;;;10.65;7.93;;;;;;;10.11;100.00;101538.56;5073122;28;20044;-31
2022/03/12 08:52:29;;;;;;;11.10;7.88;;;;;;;10.19;100.00;101538.06;5073598;28;20132;-28
2022/03/12 08:54:56;;;;;;;9.35;7.35;;;;;;;10.29;100.00;101544.44;5073582;28;20417;-28
2022/03/12 08:57:24;;;;;;;9.95;6.95;;;;;;;10.48;100.00;101543.84;5072753;28;20072;-32
2022/03/12 08:59:52;;;;;;;9.38;6.35;;;;;;;10.71;100.00;101557.22;5070194;28;20147;-29
2022/03/12 09:02:23;;;;;;;8.52;5.90;;;;;;;10.87;100.00;101549.63;5073584;28;20051;-28
2022/03/12 09:04:52;;;;;;;7.68;5.20;;;;;;;11.09;100.00;101558.47;5072426;28;20132;-30
2022/03/12 09:07:21;;;;;;;7.13;5.47;;;;;;;11.31;100.00;101556.13;5073725;28;20032;-28
2022/03/12 09:09:48;;;;;;;7.80;5.57;;;;;;;11.41;100.00;101569.19;5072153;28;20418;-30
2022/03/12 09:12:16;;;;;;;7.63;5.32;;;;;;;11.34;100.00;101568.69;5073635;28;20059;-29
2022/03/12 09:14:45;;;;;;;8.18;5.18;;;;;;;11.29;100.00;101569.56;5073299;28;20110;-28
2022/03/12 09:17:13;;;;;;;7.05;4.97;;;;;;;11.19;100.00;101563.19;5072445;28;20052;-27
2022/03/12 09:19:42;;;;;;;7.63;4.50;;;;;;;11.13;100.00;101579.13;5072885;28;20494;-29
2022/03/12 09:22:10;;;;;;;9.00;5.22;;;;;;;11.12;100.00;101585.84;5073107;28;20044;-31
2022/03/12 09:24:38;;;;;;;7.07;4.30;;;;;;;11.04;100.00;101575.25;5072713;28;20084;-28
2022/03/12 09:27:07;;;;;;;7.40;5.15;;;;;;;11.01;100.00;101573.00;5073116;28;20055;-28
2022/03/12 09:29:35;;;;;;;7.95;4.53;;;;;;;10.99;100.00;101576.09;5072865;28;20473;-27
2022/03/12 09:32:06;;;;;;;8.07;4.57;;;;;;;11.07;100.00;101573.84;5072088;28;20032;-29
2022/03/12 09:34:34;;;;;;;6.10;4.20;;;;;;;11.12;100.00;101568.25;5072922;28;20056;-28
2022/03/12 09:37:04;;;;;;;8.10;4.07;;;;;;;11.18;100.00;101573.53;5072739;28;20489;-28
2022/03/12 09:39:34;;;;;;;7.25;3.60;;;;;;;11.23;100.00;101570.69;5071401;28;20500;-29
2022/03/12 09:42:02;;;;;;;5.38;3.35;;;;;;;11.28;100.00;101567.88;5072857;28;20046;-30
2022/03/12 09:44:30;;;;;;;8.02;3.50;;;;;;;11.31;100.00;101572.06;5072494;28;20062;-27
2022/03/12 09:46:58;;;;;;;6.00;3.10;;;;;;;11.37;100.00;101571.75;5071901;28;20045;-27
2022/03/12 09:49:26;;;;;;;6.35;2.88;;;;;;;11.53;100.00;101580.06;5072658;28;20491;-28
2022/03/12 09:51:57;;;;;;;7.03;3.05;;;;;;;11.66;98.06;101573.81;5071830;28;20044;-29
2022/03/12 09:54:29;;;;;;;6.60;3.22;;;;;;;11.86;97.13;101578.47;5072758;28;20048;-29
2022/03/12 09:56:57;;;;;;;9.50;3.45;;;;;;;12.05;95.72;101571.88;5071316;28;20071;-28
2022/03/12 09:59:25;;;;;;;6.65;3.05;;;;;;;12.29;94.92;101582.34;5071547;28;20323;-32
2022/03/12 10:01:55;;;;;;;7.55;3.17;;;;;;;12.52;93.32;101575.97;5070783;28;20051;-30
2022/03/12 10:04:23;;;;;;;7.30;2.72;;;;;;;12.69;90.78;101575.50;5072846;28;20125;-30
2022/03/12 10:06:51;;;;;;;7.57;3.00;;;;;;;12.87;89.23;101579.53;5070944;28;20059;-35
2022/03/12 10:09:19;;;;;;;5.88;2.55;;;;;;;13.08;88.40;101584.59;5072313;28;20054;-28
2022/03/12 10:11:52;;;;;;;6.10;2.83;;;;;;;13.25;86.89;101583.31;5071930;28;20040;-27
2022/03/12 10:14:20;;;;;;;8.35;2.70;;;;;;;13.42;85.96;101578.03;5071018;28;20037;-30
2022/03/12 10:16:48;;;;;;;6.60;2.63;;;;;;;13.57;83.80;101574.19;5072340;28;20139;-28
2022/03/12 10:19:15;;;;;;;5.13;2.65;;;;;;;13.70;82.54;101584.66;5071729;28;20051;-30
2022/03/12 10:21:45;;;;;;;8.45;2.78;;;;;;;13.70;81.24;101595.88;5071378;28;20048;-32
2022/03/12 10:24:13;;;;;;;7.97;2.60;;;;;;;13.68;80.95;101587.75;5071697;28;20516;-28
2022/03/12 10:26:42;;;;;;;6.15;2.42;;;;;;;13.88;81.02;101588.59;5071676;28;20536;-27
2022/03/12 10:29:11;;;;;;;6.05;2.78;;;;;;;14.07;80.03;101595.88;5070778;28;20056;-29
2022/03/12 10:31:39;;;;;;;5.82;2.38;;;;;;;14.15;79.12;101597.16;5071189;28;20072;-28
2022/03/12 10:34:19;;;;;;;8.30;2.78;;;;;;;14.30;78.07;101607.28;5070397;28;20063;-30
2022/03/12 10:36:47;;;;;;;5.75;2.40;;;;;;;14.31;77.81;101617.38;5071679;28;20051;-28
2022/03/12 10:39:17;;;;;;;5.80;2.42;;;;;;;14.18;76.42;101612.56;5071507;28;20469;-31
2022/03/12 10:41:44;;;;;;;4.63;1.90;;;;;;;14.25;75.50;101622.25;5070522;28;20048;-30
2022/03/12 10:44:14;;;;;;;5.20;2.22;;;;;;;14.22;74.13;101614.44;5071865;28;20041;-30
2022/03/12 10:46:44;;;;;;;6.20;1.75;;;;;;;14.18;73.71;101621.81;5070984;28;20461;-31
2022/03/12 10:49:23;;;;;;;4.15;1.80;;;;;;;14.20;73.15;101627.09;5070969;28;20056;-30
2022/03/12 10:51:56;;;;;;;7.72;2.10;;;;;;;14.19;72.99;101625.47;5071373;28;20045;-27
2022/03/12 10:54:25;;;;;;;5.30;2.20;;;;;;;14.12;72.29;101621.06;5071478;28;20131;-28
2022/03/12 10:56:56;;;;;;;4.68;2.17;;;;;;;14.10;72.88;101628.09;5070560;28;20063;-29
2022/03/12 10:59:26;;;;;;;5.22;2.35;;;;;;;14.10;72.90;101628.94;5071261;28;20055;-30
2022/03/12 11:02:03;;;;;;;6.43;2.22;;;;;;;14.09;72.39;101637.66;5071197;28;20036;-30
2022/03/12 11:04:34;;;;;;;3.53;1.80;;;;;;;14.21;72.88;101628.78;5060623;28;20139;-29
2022/03/12 11:07:24;;;;;;;5.05;2.05;;;;;;;14.21;71.02;101635.22;5070880;28;20046;-30
2022/03/12 11:09:53;;;;;;;4.55;1.67;;;;;;;14.27;72.50;101639.63;5061663;28;20071;-27
2022/03/12 11:12:29;;;;;;;6.00;2.58;;;;;;;14.46;72.97;101632.03;5071093;28;20485;-28
2022/03/12 11:15:05;;;;;;;6.63;2.10;;;;;;;14.54;71.92;101638.09;5071037;28;20140;-28
2022/03/12 11:17:43;;;;;;;8.63;3.00;;;;;;;14.48;72.11;101641.00;5070000;28;20436;-30
2022/03/12 11:20:19;;;;;;;5.47;2.67;;;;;;;14.42;71.84;101642.22;5071395;28;20078;-27
2022/03/12 11:22:50;;;;;;;6.22;2.28;;;;;;;14.36;72.35;101653.81;5070825;28;20099;-32
2022/03/12 11:25:22;;;;;;;5.70;2.20;;;;;;;14.22;72.36;101669.75;5070257;28;20063;-28
2022/03/12 11:27:50;;;;;;;7.28;2.28;;;;;;;14.14;73.03;101658.06;5074454;28;20539;-27